Time;durP1;ratioP1;P1;durP2;ratioP2;P2;SDS_P1;SDS_P2;PMS_P1;PMS_P2;Temp;Humidity;BMP_temperature;BMP_pressure;BME280_temperature;BME280_humidity;BME280_pressure;Samples;Min_cycle;Max_cycle;Signal;HPM_P1;HPM_P2
2022/05/15 00:01:34;;;;;;;;;10.50;10.50;;;;;18.97;48.29;101575.56;2392346;28;45856;-76
2022/05/15 00:02:45;;;;;;;;;11.75;11.50;;;;;18.95;48.02;101567.69;2391750;28;45338;-76
2022/05/15 00:03:56;;;;;;;;;14.00;11.75;;;;;18.96;48.17;101572.06;2392425;28;45289;-76
2022/05/15 00:05:07;;;;;;;;;12.00;11.75;;;;;18.94;48.63;101575.75;2400912;28;44646;-76
2022/05/15 00:06:18;;;;;;;;;13.00;12.00;;;;;18.95;48.81;101572.13;2398207;28;48050;-76
2022/05/15 00:07:29;;;;;;;;;15.00;13.25;;;;;18.93;48.29;101568.69;2391959;28;45254;-76
2022/05/15 00:08:40;;;;;;;;;17.25;13.75;;;;;18.93;48.95;101572.22;2392281;28;46518;-76
2022/05/15 00:09:50;;;;;;;;;14.00;11.50;;;;;18.92;48.60;101567.84;2392417;28;45204;-76
2022/05/15 00:11:02;;;;;;;;;13.50;12.50;;;;;18.91;48.31;101562.59;2391308;28;47898;-76
2022/05/15 00:12:13;;;;;;;;;14.50;13.75;;;;;18.91;48.46;101565.28;2391731;28;45159;-76
2022/05/15 00:13:26;;;;;;;;;14.00;11.50;;;;;18.90;48.38;101561.75;2391848;28;46425;-76
2022/05/15 00:14:36;;;;;;;;;15.50;13.50;;;;;18.88;49.02;101555.66;2392367;28;45381;-76
2022/05/15 00:15:49;;;;;;;;;13.25;11.25;;;;;18.88;48.45;101561.84;2392231;28;46253;-75
2022/05/15 00:16:59;;;;;;;;;12.75;11.75;;;;;18.86;49.24;101557.53;2392595;28;45311;-75
2022/05/15 00:18:10;;;;;;;;;12.25;12.25;;;;;18.85;49.36;101546.03;2400730;28;47250;-75
2022/05/15 00:19:20;;;;;;;;;14.25;10.75;;;;;18.83;48.68;101545.25;2398569;28;45350;-75
2022/05/15 00:20:31;;;;;;;;;12.25;10.25;;;;;18.82;48.72;101542.66;2392428;28;45646;-75
2022/05/15 00:21:41;;;;;;;;;11.25;11.25;;;;;18.81;48.95;101546.28;2392576;28;45203;-75
2022/05/15 00:22:52;;;;;;;;;10.75;10.25;;;;;18.80;49.03;101548.06;2400049;28;48208;-75
2022/05/15 00:24:06;;;;;;;;;12.75;12.00;;;;;18.78;48.99;101548.16;2398417;28;44710;-75
2022/05/15 00:25:17;;;;;;;;;16.50;13.50;;;;;18.80;49.13;101553.41;2387428;28;48606;-75
2022/05/15 00:26:27;;;;;;;;;12.50;12.50;;;;;18.77;49.32;101548.22;2391881;28;44624;-75
2022/05/15 00:27:37;;;;;;;;;15.25;13.75;;;;;18.77;49.23;101546.44;2392195;28;46129;-75
2022/05/15 00:28:48;;;;;;;;;14.50;10.50;;;;;18.76;48.82;101547.41;2391601;28;44688;-75
2022/05/15 00:29:58;;;;;;;;;10.50;10.50;;;;;18.75;48.77;101537.69;2393936;28;47152;-75
2022/05/15 00:31:11;;;;;;;;;11.75;10.25;;;;;18.75;49.04;101547.47;2398649;28;45299;-75
2022/05/15 00:32:22;;;;;;;;;12.00;12.00;;;;;18.75;49.01;101547.47;2391802;28;45322;-75
2022/05/15 00:33:32;;;;;;;;;12.75;11.25;;;;;18.74;49.14;101543.09;2415685;28;45428;-75
2022/05/15 00:34:42;;;;;;;;;11.00;11.00;;;;;18.74;48.88;101541.28;2423129;28;46987;-75
2022/05/15 00:35:53;;;;;;;;;13.50;12.25;;;;;18.74;49.06;101543.09;2391945;28;45300;-75
2022/05/15 00:37:03;;;;;;;;;13.00;9.50;;;;;18.72;49.19;101539.63;2392281;28;45235;-76
2022/05/15 00:38:14;;;;;;;;;10.25;8.00;;;;;18.71;49.59;101540.59;2392433;28;45230;-76
2022/05/15 00:39:25;;;;;;;;;11.00;11.00;;;;;18.69;49.33;101540.69;2391928;28;45575;-76
2022/05/15 00:40:38;;;;;;;;;12.25;10.25;;;;;18.71;49.08;101551.25;2391448;28;45264;-75
2022/05/15 00:41:49;;;;;;;;;9.50;9.50;;;;;18.66;49.44;101539.06;2391764;28;45388;-75
2022/05/15 00:42:59;;;;;;;;;12.00;11.75;;;;;18.69;49.54;101550.47;2391031;28;45409;-75
2022/05/15 00:44:10;;;;;;;;;8.75;8.00;;;;;18.69;49.05;101555.81;2392129;28;45420;-75
2022/05/15 00:45:23;;;;;;;;;11.25;8.75;;;;;18.67;49.02;101547.88;2392195;28;45256;-75
2022/05/15 00:46:36;;;;;;;;;12.50;10.50;;;;;18.66;49.60;101552.38;2392161;28;46363;-75
2022/05/15 00:47:47;;;;;;;;;10.50;9.25;;;;;18.66;49.50;101551.50;2391782;28;45312;-75
2022/05/15 00:49:00;;;;;;;;;8.50;8.50;;;;;18.66;48.97;101547.03;2392110;28;45386;-77
2022/05/15 00:50:16;;;;;;;;;10.00;7.25;;;;;18.64;49.18;101537.41;2391492;28;44573;-77
2022/05/15 00:51:35;;;;;;;;;10.50;9.25;;;;;18.64;49.56;101543.56;2385168;28;47339;-77
2022/05/15 00:52:49;;;;;;;;;10.75;10.00;;;;;18.63;49.69;101533.91;2386868;28;45443;-77
2022/05/15 00:54:07;;;;;;;;;10.75;9.75;;;;;18.62;49.31;101528.66;2391564;28;46208;-77
2022/05/15 00:55:24;;;;;;;;;9.75;8.00;;;;;18.61;49.21;101521.59;2392161;28;45295;-77
2022/05/15 00:56:40;;;;;;;;;10.50;8.50;;;;;18.61;48.84;101522.47;2392229;28;46096;-77
2022/05/15 00:57:58;;;;;;;;;7.50;7.50;;;;;18.59;49.25;101513.72;2389554;28;44742;-77
2022/05/15 00:59:12;;;;;;;;;8.00;7.00;;;;;18.58;49.42;101508.47;2411457;28;48198;-77
2022/05/15 01:00:26;;;;;;;;;5.00;5.00;;;;;18.58;49.63;101516.44;2391657;28;45295;-77
2022/05/15 01:01:37;;;;;;;;;6.25;5.50;;;;;18.55;49.24;101507.69;2383885;28;47148;-77
2022/05/15 01:03:13;;;;;;;;;6.75;6.75;;;;;18.57;49.61;101514.75;2389945;28;45158;-77
2022/05/15 01:04:24;;;;;;;;;6.25;5.75;;;;;18.56;49.36;101513.88;2392010;28;45518;-77
2022/05/15 01:05:38;;;;;;;;;7.50;6.50;;;;;18.54;49.13;101516.59;2392135;28;45295;-77
2022/05/15 01:06:48;;;;;;;;;7.50;5.75;;;;;18.55;49.33;101518.34;2391226;28;47378;-77
2022/05/15 01:07:59;;;;;;;;;6.75;6.75;;;;;18.53;49.02;101519.38;2391446;28;45343;-77
2022/05/15 01:09:11;;;;;;;;;5.75;5.75;;;;;18.55;49.61;101514.81;2391777;28;45413;-77
2022/05/15 01:10:22;;;;;;;;;5.75;5.75;;;;;18.55;49.40;101517.47;2390741;28;44799;-77
2022/05/15 01:11:34;;;;;;;;;7.25;5.25;;;;;18.54;49.54;101513.94;2384117;28;46487;-77
2022/05/15 01:12:45;;;;;;;;;5.25;5.00;;;;;18.54;49.45;101515.78;2403057;28;45280;-77
2022/05/15 01:13:56;;;;;;;;;5.50;5.25;;;;;18.52;49.21;101513.16;2391441;28;46323;-77
2022/05/15 01:15:10;;;;;;;;;5.25;5.00;;;;;18.51;49.38;101500.81;2392042;28;45434;-77
2022/05/15 01:16:25;;;;;;;;;3.75;3.75;;;;;18.51;49.84;101505.28;2382659;28;45335;-77
2022/05/15 01:17:35;;;;;;;;;4.75;4.00;;;;;18.51;49.78;101508.81;2388187;28;44639;-77
2022/05/15 01:18:47;;;;;;;;;9.00;5.00;;;;;18.54;49.85;101510.44;2391237;28;45369;-77
2022/05/15 01:20:06;;;;;;;;;5.00;4.00;;;;;18.52;49.73;101507.00;2384793;28;45161;-77
2022/05/15 01:21:22;;;;;;;;;6.75;6.75;;;;;18.51;49.08;101507.94;2391976;28;45431;-77
2022/05/15 01:22:33;;;;;;;;;7.00;7.00;;;;;18.50;49.68;101506.22;2391968;28;45466;-77
2022/05/15 01:23:43;;;;;;;;;7.50;6.25;;;;;18.49;49.24;101504.50;2391807;28;46359;-78
2022/05/15 01:24:53;;;;;;;;;8.00;7.00;;;;;18.50;49.19;101500.88;2391426;28;45204;-78
2022/05/15 01:26:04;;;;;;;;;10.00;7.00;;;;;18.50;49.51;101504.41;2391900;28;45292;-78
2022/05/15 01:27:14;;;;;;;;;7.00;7.00;;;;;18.49;48.93;101507.16;2391354;28;44752;-76
2022/05/15 01:28:26;;;;;;;;;6.00;6.00;;;;;18.49;49.29;101505.38;2389032;28;45255;-76
2022/05/15 01:29:45;;;;;;;;;10.00;7.50;;;;;18.50;49.52;101499.09;2391322;28;44695;-75
2022/05/15 01:30:57;;;;;;;;;4.75;4.75;;;;;18.49;49.76;101499.19;2417058;28;45600;-76
2022/05/15 01:32:09;;;;;;;;;3.00;3.00;;;;;18.50;49.38;101499.09;2391973;28;44709;-76
2022/05/15 01:33:20;;;;;;;;;5.75;5.75;;;;;18.50;49.96;101506.22;2408497;28;46411;-76
2022/05/15 01:34:31;;;;;;;;;5.00;5.00;;;;;18.50;49.60;101507.06;2404433;28;45272;-77
2022/05/15 01:35:42;;;;;;;;;6.50;5.00;;;;;18.50;49.50;101504.41;2391764;28;45271;-77
2022/05/15 01:36:53;;;;;;;;;5.00;5.00;;;;;18.53;49.78;101508.72;2386447;28;45161;-77
2022/05/15 01:38:05;;;;;;;;;3.75;3.75;;;;;18.51;49.87;101495.50;2430597;28;48396;-77
2022/05/15 01:39:16;;;;;;;;;5.25;5.00;;;;;18.50;49.17;101498.22;2391333;28;45251;-77
2022/05/15 01:40:26;;;;;;;;;3.75;3.00;;;;;18.50;49.10;101492.91;2391599;28;45410;-77
2022/05/15 01:41:37;;;;;;;;;6.75;6.00;;;;;18.49;49.10;101491.19;2391195;28;45297;-77
2022/05/15 01:42:47;;;;;;;;;6.25;4.25;;;;;18.49;49.77;101486.75;2390901;28;46460;-77
2022/05/15 01:43:57;;;;;;;;;7.50;6.00;;;;;18.50;49.34;101487.56;2391853;28;45151;-77
2022/05/15 01:45:08;;;;;;;;;5.50;5.25;;;;;18.50;49.64;101482.25;2391535;28;45498;-77
2022/05/15 01:46:25;;;;;;;;;8.00;5.00;;;;;18.49;49.30;101485.88;2391533;28;45594;-75
2022/05/15 01:47:35;;;;;;;;;16.25;12.50;;;;;18.47;49.07;101477.97;2382930;28;45589;-75
2022/05/15 01:48:45;;;;;;;;;13.50;11.00;;;;;18.47;49.28;101480.63;2389355;28;45388;-75
2022/05/15 01:49:56;;;;;;;;;10.00;9.50;;;;;18.46;49.07;101480.72;2390895;28;48404;-75
2022/05/15 01:51:06;;;;;;;;;11.25;9.50;;;;;18.45;49.08;101471.88;2382112;28;45263;-76
2022/05/15 01:52:16;;;;;;;;;9.25;9.00;;;;;18.44;49.75;101476.34;2391074;28;46382;-76
2022/05/15 01:53:27;;;;;;;;;11.25;9.25;;;;;18.43;49.31;101471.09;2391747;28;44730;-76
2022/05/15 01:54:38;;;;;;;;;8.00;7.25;;;;;18.44;49.71;101479.00;2391686;28;45331;-76
2022/05/15 01:55:50;;;;;;;;;8.00;7.50;;;;;18.42;49.17;101485.38;2383913;28;44670;-76
2022/05/15 01:57:00;;;;;;;;;6.25;5.75;;;;;18.42;49.88;101475.56;2389056;28;46237;-77
2022/05/15 01:58:11;;;;;;;;;10.25;9.00;;;;;18.42;50.22;101480.03;2390537;28;45713;-77
2022/05/15 01:59:21;;;;;;;;;8.50;8.00;;;;;18.41;49.95;101484.50;2391514;28;45236;-77
2022/05/15 02:00:32;;;;;;;;;8.75;8.75;;;;;18.40;50.13;101482.75;2391722;28;44556;-77
2022/05/15 02:01:42;;;;;;;;;8.75;7.00;;;;;18.40;49.48;101488.09;2390843;28;46926;-77
2022/05/15 02:02:53;;;;;;;;;7.75;6.75;;;;;18.39;49.84;101481.06;2391057;28;45293;-77
2022/05/15 02:04:04;;;;;;;;;6.00;5.00;;;;;18.38;49.38;101474.00;2391589;28;45979;-77
2022/05/15 02:05:16;;;;;;;;;5.00;5.00;;;;;18.37;49.63;101477.59;2390258;28;44679;-77
2022/05/15 02:06:28;;;;;;;;;8.00;6.50;;;;;18.37;49.74;101472.28;2390898;28;45700;-77
2022/05/15 02:07:38;;;;;;;;;5.50;5.00;;;;;18.38;49.68;101471.34;2391771;28;45279;-77
2022/05/15 02:08:49;;;;;;;;;8.25;8.25;;;;;18.36;49.59;101465.25;2400030;28;47276;-77
2022/05/15 02:09:59;;;;;;;;;10.00;7.75;;;;;18.35;49.95;101474.16;2397888;28;45434;-77
2022/05/15 02:11:10;;;;;;;;;6.75;6.75;;;;;18.35;50.29;101463.53;2391227;28;45311;-77
2022/05/15 02:12:20;;;;;;;;;7.25;6.00;;;;;18.33;50.13;101465.41;2391575;28;45469;-77
2022/05/15 02:13:31;;;;;;;;;5.25;3.25;;;;;18.32;50.12;101464.56;2391552;28;45360;-77
2022/05/15 02:14:41;;;;;;;;;6.25;5.25;;;;;18.31;50.02;101464.66;2391706;28;45211;-76
2022/05/15 02:15:52;;;;;;;;;6.50;6.25;;;;;18.30;49.84;101465.56;2399454;28;48446;-76
2022/05/15 02:17:03;;;;;;;;;5.75;5.00;;;;;18.30;50.29;101457.59;2407144;28;44619;-76
2022/05/15 02:18:13;;;;;;;;;7.50;3.75;;;;;18.30;50.28;101458.47;2395075;28;46595;-76
2022/05/15 02:19:23;;;;;;;;;4.50;4.50;;;;;18.29;50.27;101459.41;2391608;28;45170;-77
2022/05/15 02:20:34;;;;;;;;;6.00;5.50;;;;;18.27;50.18;101450.63;2390734;28;47177;-77
2022/05/15 02:21:45;;;;;;;;;6.00;5.25;;;;;18.27;50.26;101449.81;2384217;28;44587;-77
2022/05/15 02:22:56;;;;;;;;;6.25;6.25;;;;;18.27;50.38;101449.81;2379276;28;46276;-77
2022/05/15 02:24:06;;;;;;;;;6.75;5.75;;;;;18.26;49.75;101445.41;2391368;28;45437;-77
2022/05/15 02:25:17;;;;;;;;;5.00;4.50;;;;;18.25;50.09;101449.03;2401565;28;46906;-77
2022/05/15 02:26:27;;;;;;;;;5.25;5.25;;;;;18.21;50.10;101438.53;2399362;28;45486;-76
2022/05/15 02:27:37;;;;;;;;;5.75;5.75;;;;;18.21;50.30;101446.53;2392898;28;45273;-77
2022/05/15 02:28:48;;;;;;;;;7.75;5.50;;;;;18.22;50.34;101442.91;2393026;28;45212;-77
2022/05/15 02:29:59;;;;;;;;;8.25;6.00;;;;;18.20;50.84;101438.59;2392979;28;46245;-77
2022/05/15 02:31:10;;;;;;;;;5.00;5.00;;;;;18.20;50.62;101446.59;2393059;28;45304;-77
2022/05/15 02:32:20;;;;;;;;;7.75;6.00;;;;;18.20;50.63;101443.94;2400576;28;47168;-77
2022/05/15 02:33:31;;;;;;;;;7.00;7.00;;;;;18.18;50.78;101445.78;2420522;28;45474;-77
2022/05/15 02:34:41;;;;;;;;;4.75;4.75;;;;;18.18;50.28;101446.66;2394857;28;47293;-77
2022/05/15 02:35:52;;;;;;;;;6.00;4.25;;;;;18.16;50.88;101443.22;2399349;28;45260;-77
2022/05/15 02:37:02;;;;;;;;;6.25;6.25;;;;;18.15;50.74;101444.16;2401581;28;48018;-77
2022/05/15 02:38:12;;;;;;;;;7.50;6.25;;;;;18.17;51.29;101446.75;2399089;28;45251;-77
2022/05/15 02:39:23;;;;;;;;;6.75;6.75;;;;;18.13;51.26;101445.19;2392745;28;46514;-77
2022/05/15 02:40:33;;;;;;;;;8.00;5.75;;;;;18.13;50.74;101446.03;2392189;28;45157;-77
2022/05/15 02:41:44;;;;;;;;;6.50;5.00;;;;;18.13;50.96;101443.38;2391887;28;45336;-77
2022/05/15 02:42:56;;;;;;;;;7.50;7.50;;;;;18.10;51.26;101439.09;2387350;28;45406;-77
2022/05/15 02:44:06;;;;;;;;;6.25;6.00;;;;;18.08;51.13;101446.28;2390814;28;47075;-77
2022/05/15 02:45:17;;;;;;;;;9.25;6.75;;;;;18.08;51.05;101445.44;2392445;28;45194;-76
2022/05/15 02:46:27;;;;;;;;;6.25;5.25;;;;;18.08;50.85;101445.44;2392862;28;45296;-76
2022/05/15 02:47:37;;;;;;;;;7.25;6.25;;;;;18.07;51.28;101443.72;2392670;28;45341;-76
2022/05/15 02:51:46;;;;;;;;;6.50;5.50;;;;;18.05;51.39;101440.28;2392727;28;45378;-77
2022/05/15 02:52:57;;;;;;;;;5.00;5.00;;;;;18.03;50.85;101436.84;2386190;28;45492;-77
2022/05/15 02:54:07;;;;;;;;;6.00;6.00;;;;;18.03;50.75;101443.00;2387675;28;45370;-77
2022/05/15 02:55:17;;;;;;;;;6.00;5.75;;;;;18.00;50.37;101438.72;2392864;28;45273;-77
2022/05/15 02:56:32;;;;;;;;;5.00;5.00;;;;;18.02;50.28;101446.63;2392826;28;45510;-77
2022/05/15 02:57:43;;;;;;;;;5.25;5.25;;;;;18.04;51.15;101449.19;2391958;28;44646;-77
2022/05/15 02:58:53;;;;;;;;;8.00;6.25;;;;;18.04;51.31;101451.88;2385140;28;48133;-77
2022/05/15 03:00:04;;;;;;;;;6.00;5.50;;;;;18.00;50.92;101441.38;2392373;28;45233;-77
2022/05/15 03:01:15;;;;;;;;;5.50;5.50;;;;;17.99;51.21;101441.47;2392680;28;46461;-77
2022/05/15 03:02:26;;;;;;;;;8.00;7.00;;;;;18.00;51.05;101448.53;2392030;28;44609;-77
2022/05/15 03:03:37;;;;;;;;;7.50;6.50;;;;;18.02;50.95;101451.09;2392728;28;45379;-77
2022/05/15 03:04:49;;;;;;;;;6.75;6.00;;;;;18.02;51.41;101449.28;2392993;28;45215;-78
2022/05/15 03:06:00;;;;;;;;;5.00;5.00;;;;;17.99;50.98;101444.13;2392308;28;45260;-77
2022/05/15 03:07:10;;;;;;;;;6.00;4.75;;;;;17.98;51.35;101443.25;2392979;28;44599;-77
2022/05/15 03:08:20;;;;;;;;;5.50;5.50;;;;;17.99;51.46;101446.78;2392543;28;46242;-77
2022/05/15 03:09:31;;;;;;;;;6.75;6.75;;;;;17.99;51.25;101442.34;2392189;28;45206;-77
2022/05/15 03:10:42;;;;;;;;;10.25;7.75;;;;;17.97;51.17;101438.91;2401130;28;46134;-77
2022/05/15 03:11:52;;;;;;;;;7.00;7.00;;;;;17.97;51.14;101438.03;2398949;28;45186;-77
2022/05/15 03:13:03;;;;;;;;;5.50;5.25;;;;;17.96;50.90;101439.84;2392756;28;45221;-77
2022/05/15 03:14:13;;;;;;;;;8.00;6.25;;;;;17.96;50.94;101442.50;2392822;28;45244;-77
2022/05/15 03:15:23;;;;;;;;;6.50;6.50;;;;;17.94;51.65;101449.69;2392757;28;46530;-77
2022/05/15 03:16:35;;;;;;;;;7.75;6.25;;;;;17.95;51.23;101442.59;2391840;28;45288;-77
2022/05/15 03:17:45;;;;;;;;;7.00;7.00;;;;;17.93;51.22;101436.47;2391853;28;46502;-77
2022/05/15 03:18:55;;;;;;;;;7.00;6.00;;;;;17.91;51.11;101436.56;2392697;28;44643;-77
2022/05/15 03:20:06;;;;;;;;;9.25;7.00;;;;;17.92;51.35;101432.09;2389878;28;45632;-77
2022/05/15 03:21:29;;;;;;;;;7.00;7.00;;;;;17.91;51.66;101435.69;2392902;28;44611;-77
2022/05/15 03:22:40;;;;;;;;;7.00;6.00;;;;;17.89;51.16;101435.78;2392758;28;46448;-77
2022/05/15 03:23:50;;;;;;;;;9.25;7.75;;;;;17.89;51.29;101438.44;2392731;28;45141;-77
2022/05/15 03:25:02;;;;;;;;;8.00;8.00;;;;;17.89;51.28;101435.78;2401122;28;47080;-77
2022/05/15 03:26:13;;;;;;;;;6.00;6.00;;;;;17.86;51.29;101427.97;2398739;28;45214;-77
2022/05/15 03:27:23;;;;;;;;;8.00;5.50;;;;;17.86;51.35;101430.63;2392103;28;46126;-77
2022/05/15 03:28:33;;;;;;;;;7.00;6.50;;;;;17.86;51.31;101430.63;2391970;28;45245;-76
2022/05/15 03:29:44;;;;;;;;;6.50;6.50;;;;;17.84;51.29;101428.06;2391816;28;46059;-76
2022/05/15 03:30:54;;;;;;;;;8.25;5.75;;;;;17.84;51.37;101430.72;2392098;28;44665;-76
2022/05/15 03:32:05;;;;;;;;;4.75;1.75;;;;;17.83;51.64;101433.47;2394383;28;47037;-76
2022/05/15 03:33:15;;;;;;;;;7.00;6.00;;;;;17.83;51.25;101434.31;2412526;28;45546;-76
2022/05/15 03:34:25;;;;;;;;;8.00;7.00;;;;;17.83;51.70;101430.81;2408774;28;46105;-76
2022/05/15 03:35:37;;;;;;;;;6.50;5.00;;;;;17.82;51.32;101424.63;2392684;28;45306;-76
2022/05/15 03:36:51;;;;;;;;;8.00;7.00;;;;;17.80;51.44;101423.84;2400535;28;48398;-76
2022/05/15 03:38:01;;;;;;;;;7.00;6.00;;;;;17.80;51.41;101425.66;2398262;28;44688;-77
2022/05/15 03:39:13;;;;;;;;;8.50;6.75;;;;;17.79;51.45;101429.22;2391867;28;45527;-77
2022/05/15 03:40:24;;;;;;;;;7.75;6.75;;;;;17.75;51.67;101423.22;2391890;28;45194;-77
2022/05/15 03:41:35;;;;;;;;;4.00;4.00;;;;;17.74;51.37;101422.38;2391796;28;45324;-78
2022/05/15 03:42:46;;;;;;;;;5.50;5.50;;;;;17.74;51.72;101421.50;2392764;28;45547;-78
2022/05/15 03:43:56;;;;;;;;;5.25;5.25;;;;;17.74;52.10;101424.16;2392514;28;46580;-77
2022/05/15 03:45:07;;;;;;;;;5.25;5.25;;;;;17.72;51.59;101423.38;2392578;28;45247;-77
2022/05/15 03:46:17;;;;;;;;;4.50;4.50;;;;;17.71;51.69;101421.66;2400635;28;48128;-77
2022/05/15 03:47:27;;;;;;;;;6.75;6.75;;;;;17.71;52.00;101416.34;2391552;28;45344;-77
2022/05/15 03:48:38;;;;;;;;;6.75;6.75;;;;;17.69;51.67;101413.78;2390056;28;45401;-77
2022/05/15 03:49:49;;;;;;;;;7.50;6.00;;;;;17.69;51.49;101418.22;2392580;28;45509;-77
2022/05/15 03:50:59;;;;;;;;;6.25;6.25;;;;;17.68;51.71;101411.19;2392551;28;45299;-77
2022/05/15 03:52:10;;;;;;;;;7.25;6.00;;;;;17.65;51.78;101410.44;2392503;28;45481;-77
2022/05/15 03:53:20;;;;;;;;;5.00;5.00;;;;;17.64;51.74;101408.69;2392444;28;46520;-76
2022/05/15 03:54:31;;;;;;;;;7.50;6.00;;;;;17.64;52.09;101411.34;2392531;28;45248;-76
2022/05/15 03:55:41;;;;;;;;;5.75;5.75;;;;;17.62;52.00;101405.25;2386115;28;47363;-76
2022/05/15 03:56:52;;;;;;;;;6.75;4.75;;;;;17.62;51.87;101407.06;2392217;28;45297;-76
2022/05/15 03:58:02;;;;;;;;;6.00;4.00;;;;;17.61;51.69;101405.31;2398777;28;45283;-76
2022/05/15 03:59:13;;;;;;;;;5.25;5.00;;;;;17.61;51.66;101400.88;2392538;28;44561;-76
2022/05/15 04:00:24;;;;;;;;;7.75;6.00;;;;;17.60;51.62;101404.50;2401146;28;47829;-76
2022/05/15 04:01:34;;;;;;;;;5.50;5.50;;;;;17.58;51.83;101401.03;2398564;28;44643;-76
2022/05/15 04:02:44;;;;;;;;;6.75;6.75;;;;;17.56;51.97;101394.94;2384400;28;47895;-76
2022/05/15 04:03:55;;;;;;;;;6.00;4.25;;;;;17.56;51.95;101404.75;2392026;28;44727;-77
2022/05/15 04:05:08;;;;;;;;;6.00;4.75;;;;;17.56;52.05;101394.09;2391908;28;45421;-76
2022/05/15 04:06:19;;;;;;;;;7.00;5.50;;;;;17.54;51.41;101403.00;2382518;28;45348;-76
2022/05/15 04:07:29;;;;;;;;;8.50;4.50;;;;;17.54;51.88;101403.00;2389099;28;48168;-78
2022/05/15 04:08:40;;;;;;;;;6.00;6.00;;;;;17.52;51.96;101396.06;2391775;28;44678;-78
2022/05/15 04:09:50;;;;;;;;;6.00;6.00;;;;;17.52;52.13;101407.53;2391434;28;47051;-78
2022/05/15 04:11:00;;;;;;;;;6.00;4.75;;;;;17.51;52.31;101403.16;2389067;28;45380;-78
2022/05/15 04:12:12;;;;;;;;;8.25;6.00;;;;;17.51;51.98;101402.28;2386058;28;45379;-78
2022/05/15 04:13:23;;;;;;;;;5.50;5.50;;;;;17.48;52.38;101405.13;2392553;28;45232;-78
2022/05/15 04:14:34;;;;;;;;;5.00;5.00;;;;;17.48;52.21;101411.28;2392344;28;45255;-77
2022/05/15 04:15:44;;;;;;;;;6.50;6.25;;;;;17.47;51.84;101403.41;2386907;28;45257;-77
2022/05/15 04:16:54;;;;;;;;;7.25;4.50;;;;;17.47;52.26;101404.25;2390367;28;46343;-77
2022/05/15 04:18:09;;;;;;;;;5.25;5.25;;;;;17.47;52.36;101411.38;2400869;28;45249;-77
2022/05/15 04:19:19;;;;;;;;;5.00;5.00;;;;;17.45;52.08;101408.81;2398002;28;46171;-77
2022/05/15 04:20:30;;;;;;;;;7.75;6.00;;;;;17.46;52.43;101407.84;2392560;28;45165;-77
2022/05/15 04:21:40;;;;;;;;;5.50;5.50;;;;;17.48;52.32;101407.78;2391831;28;46589;-77
2022/05/15 04:22:51;;;;;;;;;6.75;4.50;;;;;17.44;52.53;101409.72;2392590;28;45349;-77
2022/05/15 04:24:01;;;;;;;;;9.00;6.25;;;;;17.44;52.12;101404.41;2392243;28;45303;-77
2022/05/15 04:25:12;;;;;;;;;8.50;5.25;;;;;17.47;51.98;101406.06;2400232;28;45254;-77
2022/05/15 04:26:22;;;;;;;;;7.00;6.00;;;;;17.43;52.50;101408.03;2398518;28;45365;-77
2022/05/15 04:27:34;;;;;;;;;7.50;7.00;;;;;17.45;52.48;101403.50;2392337;28;44629;-77
2022/05/15 04:28:44;;;;;;;;;8.50;6.50;;;;;17.45;51.57;101395.53;2392165;28;45403;-77
2022/05/15 04:29:55;;;;;;;;;7.75;5.00;;;;;17.46;52.25;101399.88;2392075;28;45295;-77
2022/05/15 04:31:05;;;;;;;;;6.00;5.75;;;;;17.45;52.30;101400.84;2391597;28;47104;-77
2022/05/15 04:32:15;;;;;;;;;5.50;4.75;;;;;17.47;52.60;101396.28;2391617;28;45198;-77
2022/05/15 04:33:26;;;;;;;;;6.75;6.00;;;;;17.46;52.21;101394.56;2413629;28;46476;-77
2022/05/15 04:34:37;;;;;;;;;9.00;6.50;;;;;17.46;52.34;101389.25;2384075;28;45369;-77
2022/05/15 04:35:47;;;;;;;;;8.25;7.00;;;;;17.46;52.59;101396.38;2392276;28;45452;-77
2022/05/15 04:36:57;;;;;;;;;7.00;7.00;;;;;17.46;52.37;101389.25;2392203;28;45228;-77
2022/05/15 04:38:09;;;;;;;;;7.00;6.75;;;;;17.45;52.40;101390.19;2391763;28;46465;-76
2022/05/15 04:39:20;;;;;;;;;10.25;7.00;;;;;17.46;52.11;101391.06;2392513;28;45227;-76
2022/05/15 04:40:31;;;;;;;;;6.25;6.00;;;;;17.45;52.43;101395.53;2391990;28;45438;-78
2022/05/15 04:41:41;;;;;;;;;3.25;3.25;;;;;17.43;52.84;101387.59;2392354;28;45170;-78
2022/05/15 04:42:52;;;;;;;;;6.50;5.00;;;;;17.43;52.72;101384.13;2400787;28;48375;-77
2022/05/15 04:44:02;;;;;;;;;7.25;5.00;;;;;17.44;52.25;101388.47;2397674;28;45287;-77
2022/05/15 04:45:12;;;;;;;;;6.75;6.75;;;;;17.45;52.73;101389.34;2391473;28;46298;-77
2022/05/15 04:46:25;;;;;;;;;5.00;5.00;;;;;17.43;52.54;101384.94;2392198;28;45417;-77
2022/05/15 04:47:36;;;;;;;;;8.25;6.00;;;;;17.42;52.50;101385.91;2391930;28;45918;-77
2022/05/15 04:48:47;;;;;;;;;6.25;6.00;;;;;17.43;52.69;101384.94;2392165;28;45275;-78
2022/05/15 04:49:57;;;;;;;;;5.50;4.50;;;;;17.43;52.57;101386.78;2392236;28;46486;-77
2022/05/15 04:51:07;;;;;;;;;8.75;5.50;;;;;17.43;52.89;101382.28;2392162;28;45319;-77
2022/05/15 04:52:18;;;;;;;;;6.00;5.25;;;;;17.46;52.59;101391.91;2392103;28;46180;-77
2022/05/15 04:53:30;;;;;;;;;4.25;4.00;;;;;17.45;52.48;101392.84;2392354;28;44680;-76
2022/05/15 04:54:41;;;;;;;;;4.75;4.75;;;;;17.45;52.58;101392.84;2391638;28;45424;-75
2022/05/15 04:55:51;;;;;;;;;4.25;4.25;;;;;17.46;52.99;101396.38;2392237;28;45195;-75
2022/05/15 04:57:02;;;;;;;;;7.00;6.00;;;;;17.45;52.78;101400.84;2391755;28;46410;-76
2022/05/15 04:58:12;;;;;;;;;4.75;4.75;;;;;17.46;52.76;101402.53;2392107;28;45593;-77
2022/05/15 04:59:23;;;;;;;;;6.75;6.25;;;;;17.46;52.68;101397.22;2392037;28;46319;-77
2022/05/15 05:00:33;;;;;;;;;7.00;4.00;;;;;17.44;53.34;101399.09;2392174;28;45170;-77
2022/05/15 05:01:44;;;;;;;;;5.75;5.75;;;;;17.42;53.31;101398.31;2392009;28;46406;-77
2022/05/15 05:02:55;;;;;;;;;6.00;6.00;;;;;17.45;53.06;101411.47;2391939;28;44640;-77
2022/05/15 05:04:05;;;;;;;;;9.00;6.00;;;;;17.44;53.04;101409.72;2391139;28;45481;-77
2022/05/15 05:05:16;;;;;;;;;9.25;7.00;;;;;17.44;52.60;101409.72;2392126;28;45142;-77
2022/05/15 05:06:28;;;;;;;;;6.25;6.25;;;;;17.44;52.45;101412.38;2400235;28;47012;-78
2022/05/15 05:07:38;;;;;;;;;6.50;6.00;;;;;17.46;51.94;101412.31;2391585;28;45241;-78
2022/05/15 05:08:49;;;;;;;;;6.00;5.00;;;;;17.43;52.58;101411.53;2382212;28;45623;-78
2022/05/15 05:10:00;;;;;;;;;8.50;6.75;;;;;17.47;52.20;101406.91;2388492;28;45449;-76
2022/05/15 05:11:11;;;;;;;;;8.00;6.75;;;;;17.48;52.63;101411.28;2391907;28;45372;-76
2022/05/15 05:12:21;;;;;;;;;6.25;5.50;;;;;17.50;52.90;101412.09;2392203;28;45165;-77
2022/05/15 05:13:32;;;;;;;;;4.25;4.25;;;;;17.51;52.82;101411.13;2391832;28;46236;-77
2022/05/15 05:14:42;;;;;;;;;6.75;6.25;;;;;17.52;53.13;101410.19;2386050;28;44639;-77
2022/05/15 05:15:52;;;;;;;;;8.00;6.25;;;;;17.52;52.96;101410.19;2383368;28;45206;-76
2022/05/15 05:17:03;;;;;;;;;8.50;5.75;;;;;17.55;52.96;101411.84;2392093;28;45261;-76
2022/05/15 05:18:15;;;;;;;;;6.00;5.00;;;;;17.54;53.44;101410.13;2399982;28;46979;-76
2022/05/15 05:19:25;;;;;;;;;6.50;5.50;;;;;17.56;53.04;101415.38;2396864;28;45249;-76
2022/05/15 05:20:36;;;;;;;;;7.75;5.25;;;;;17.56;52.95;101416.19;2391983;28;46351;-76
2022/05/15 05:21:47;;;;;;;;;6.50;5.75;;;;;17.56;52.91;101415.38;2391241;28;44624;-76
2022/05/15 05:22:57;;;;;;;;;6.25;6.25;;;;;17.58;53.16;101421.47;2391353;28;45289;-76
2022/05/15 05:24:08;;;;;;;;;6.25;5.25;;;;;17.58;53.21;101416.16;2391349;28;44694;-76
2022/05/15 05:25:19;;;;;;;;;5.25;5.25;;;;;17.59;53.33;101417.84;2400165;28;47395;-76
2022/05/15 05:26:29;;;;;;;;;4.00;4.00;;;;;17.60;53.51;101422.22;2394904;28;45288;-77
2022/05/15 05:27:42;;;;;;;;;8.75;7.00;;;;;17.60;53.47;101422.22;2390997;28;47286;-77
2022/05/15 05:28:52;;;;;;;;;6.75;5.75;;;;;17.60;53.24;101420.44;2391608;28;45240;-77
2022/05/15 05:30:05;;;;;;;;;5.00;5.00;;;;;17.61;53.40;101413.31;2391576;28;46445;-77
2022/05/15 05:31:16;;;;;;;;;7.00;6.50;;;;;17.61;53.25;101415.97;2391963;28;45210;-77
2022/05/15 05:32:27;;;;;;;;;5.25;5.25;;;;;17.63;53.91;101425.56;2391664;28;46449;-76
2022/05/15 05:33:37;;;;;;;;;4.75;4.75;;;;;17.63;53.67;101419.41;2418577;28;45248;-76